Time;durP1;ratioP1;P1;durP2;ratioP2;P2;SDS_P1;SDS_P2;PMS_P1;PMS_P2;Temp;Humidity;BMP_temperature;BMP_pressure;BME280_temperature;BME280_humidity;BME280_pressure;Samples;Min_cycle;Max_cycle;Signal;HPM_P1;HPM_P2
2024/02/11 00:01:35;;;;;;;20.50;10.18;;;;;;;4.56;100.00;97947.13;4986775;28;20404;-61
2024/02/11 00:04:02;;;;;;;22.75;12.05;;;;;;;4.55;100.00;97959.25;4987819;28;20053;-59
2024/02/11 00:06:32;;;;;;;23.88;13.95;;;;;;;4.51;100.00;97955.69;4987487;28;20046;-60
2024/02/11 00:09:00;;;;;;;31.08;12.07;;;;;;;4.48;100.00;97959.16;4987271;28;20054;-59
2024/02/11 00:11:28;;;;;;;25.00;11.93;;;;;;;4.46;100.00;97958.75;4987229;28;20501;-60
2024/02/11 00:13:56;;;;;;;21.83;10.95;;;;;;;4.47;100.00;97954.84;4987190;28;20081;-61
2024/02/11 00:16:23;;;;;;;19.80;11.15;;;;;;;4.43;100.00;97962.22;4987072;28;20600;-59
2024/02/11 00:18:51;;;;;;;23.27;11.75;;;;;;;4.39;100.00;97959.47;4986661;28;20039;-60
2024/02/11 00:21:19;;;;;;;26.10;11.90;;;;;;;4.40;100.00;97965.72;4987841;28;20050;-59
2024/02/11 00:23:46;;;;;;;25.13;12.00;;;;;;;4.35;100.00;97966.03;4987173;28;20055;-61
2024/02/11 00:26:13;;;;;;;30.60;14.98;;;;;;;4.27;100.00;97960.47;4987658;28;20062;-57
2024/02/11 00:28:41;;;;;;;31.10;15.75;;;;;;;4.24;100.00;97972.16;4986364;28;20046;-60
2024/02/11 00:31:09;;;;;;;30.70;14.52;;;;;;;4.21;100.00;97975.63;4987076;28;20058;-60
2024/02/11 00:33:39;;;;;;;38.60;17.98;;;;;;;4.16;100.00;97970.50;4987224;28;20135;-60
2024/02/11 00:36:07;;;;;;;31.65;18.05;;;;;;;4.11;100.00;97978.22;4986471;28;20050;-60
2024/02/11 00:38:35;;;;;;;34.28;18.73;;;;;;;4.11;100.00;97979.03;4986383;28;20076;-58
2024/02/11 00:41:03;;;;;;;33.60;19.58;;;;;;;4.15;100.00;97981.81;4987073;28;20057;-59
2024/02/11 00:43:31;;;;;;;42.22;18.55;;;;;;;4.15;100.00;97985.34;4986921;28;20046;-62
2024/02/11 00:45:59;;;;;;;34.70;17.13;;;;;;;4.15;100.00;97993.56;4986766;28;20734;-62
2024/02/11 00:48:28;;;;;;;35.00;17.38;;;;;;;4.09;100.00;97997.78;4986921;28;20081;-61
2024/02/11 00:50:56;;;;;;;45.30;20.30;;;;;;;4.07;100.00;98008.31;4986122;28;20050;-60
2024/02/11 00:53:25;;;;;;;43.15;20.95;;;;;;;4.09;100.00;97999.72;4986852;28;20061;-58
2024/02/11 00:55:53;;;;;;;53.03;23.45;;;;;;;4.07;100.00;98005.56;4986649;28;20520;-59
2024/02/11 00:58:21;;;;;;;48.00;21.70;;;;;;;4.01;100.00;98001.56;4986216;28;20053;-59
2024/02/11 01:00:49;;;;;;;50.25;21.95;;;;;;;4.00;100.00;98008.19;4987146;28;20046;-59
2024/02/11 01:03:16;;;;;;;53.63;21.88;;;;;;;3.95;100.00;98007.72;5005743;28;20041;-60
2024/02/11 01:05:44;;;;;;;51.70;23.20;;;;;;;3.96;100.00;98014.78;5001205;28;20046;-59
2024/02/11 01:08:11;;;;;;;55.55;26.10;;;;;;;3.98;100.00;98012.44;5004211;28;20050;-59
2024/02/11 01:10:39;;;;;;;56.25;25.63;;;;;;;3.98;100.00;98018.72;4999956;28;20050;-59
2024/02/11 01:13:06;;;;;;;53.85;27.05;;;;;;;4.00;100.00;98015.59;4994195;28;20129;-57
2024/02/11 01:15:35;;;;;;;63.08;30.17;;;;;;;4.02;100.00;98019.59;5004796;28;20042;-59
2024/02/11 01:18:03;;;;;;;63.08;29.13;;;;;;;4.05;100.00;98023.53;4968572;28;20046;-59
2024/02/11 01:20:31;;;;;;;55.70;27.30;;;;;;;4.06;100.00;98025.09;4986329;28;20057;-62
2024/02/11 01:22:58;;;;;;;54.92;25.90;;;;;;;4.05;100.00;98039.97;4989369;28;20057;-57
2024/02/11 01:25:26;;;;;;;49.45;22.65;;;;;;;4.02;100.00;98030.53;5006216;28;20059;-61
2024/02/11 01:27:53;;;;;;;65.88;25.98;;;;;;;4.04;100.00;98030.16;5005610;28;20058;-59
2024/02/11 01:30:22;;;;;;;67.60;24.83;;;;;;;4.01;100.00;98030.88;4995491;28;20073;-58
2024/02/11 01:32:50;;;;;;;55.25;22.10;;;;;;;4.01;100.00;98039.88;4994093;28;20088;-56
2024/02/11 01:35:18;;;;;;;51.22;21.30;;;;;;;4.02;100.00;98038.75;5005920;28;20263;-59
2024/02/11 01:37:47;;;;;;;65.90;20.73;;;;;;;4.02;100.00;98041.47;5006024;28;20045;-60
2024/02/11 01:40:17;;;;;;;59.97;18.90;;;;;;;4.03;100.00;98039.50;4997602;28;20416;-56
2024/02/11 01:42:45;;;;;;;66.78;19.00;;;;;;;4.02;100.00;98041.47;5005869;28;20050;-59
2024/02/11 01:45:15;;;;;;;63.80;18.88;;;;;;;3.97;100.00;98044.50;4999824;28;20049;-59
2024/02/11 01:47:45;;;;;;;78.43;19.15;;;;;;;3.97;100.00;98039.03;4994915;28;20051;-58
2024/02/11 01:50:16;;;;;;;77.72;18.08;;;;;;;3.97;100.00;98047.25;4999279;28;20054;-54
2024/02/11 01:52:47;;;;;;;82.33;18.77;;;;;;;3.98;100.00;98050.78;5005475;28;20051;-58
2024/02/11 01:55:18;;;;;;;56.80;17.73;;;;;;;4.00;100.00;98054.72;5003140;28;20579;-57
2024/02/11 01:57:47;;;;;;;77.47;20.00;;;;;;;4.00;100.00;98054.72;4993619;28;20050;-52
2024/02/11 02:00:16;;;;;;;67.60;18.90;;;;;;;4.04;100.00;98065.75;4984557;28;20049;-57
2024/02/11 02:02:45;;;;;;;115.97;21.85;;;;;;;4.06;100.00;98068.91;5008148;28;20057;-58
2024/02/11 02:05:14;;;;;;;82.45;20.35;;;;;;;4.03;100.00;98069.63;5009428;28;20065;-61
2024/02/11 02:07:42;;;;;;;123.68;21.45;;;;;;;4.04;100.00;98071.22;4986422;28;20412;-61
2024/02/11 02:10:09;;;;;;;136.02;21.58;;;;;;;4.02;100.00;98074.34;4989533;28;20509;-58
2024/02/11 02:12:40;;;;;;;132.77;22.50;;;;;;;4.03;100.00;98081.38;4992786;28;20049;-55
2024/02/11 02:15:08;;;;;;;100.90;20.17;;;;;;;4.04;100.00;98072.00;5009125;28;20100;-56
2024/02/11 02:17:36;;;;;;;118.43;19.85;;;;;;;4.05;100.00;98065.34;5004945;28;20046;-55
2024/02/11 02:20:06;;;;;;;105.82;19.08;;;;;;;4.10;100.00;98072.50;5003503;28;20054;-59
2024/02/11 02:22:34;;;;;;;101.53;19.08;;;;;;;4.13;100.00;98088.97;4974753;28;20050;-56
2024/02/11 02:25:02;;;;;;;136.85;20.23;;;;;;;4.14;100.00;98087.81;5008668;28;20089;-58
2024/02/11 02:27:29;;;;;;;120.28;21.73;;;;;;;4.16;100.00;98090.97;5008694;28;20042;-58
2024/02/11 02:29:58;;;;;;;147.23;20.55;;;;;;;4.13;100.00;98079.97;5005630;28;20149;-57
2024/02/11 02:32:25;;;;;;;127.90;18.85;;;;;;;4.12;100.00;98084.66;4993382;28;20054;-58
2024/02/11 02:34:55;;;;;;;152.13;21.92;;;;;;;4.15;100.00;98088.59;5007212;28;20058;-59
2024/02/11 02:37:22;;;;;;;131.93;18.90;;;;;;;4.15;100.00;98102.28;5008618;28;20049;-56
2024/02/11 02:39:49;;;;;;;144.43;18.50;;;;;;;4.13;100.00;98096.41;5007270;28;20050;-53
2024/02/11 02:42:17;;;;;;;110.43;18.65;;;;;;;4.12;100.00;98083.84;5008253;28;20061;-56
2024/02/11 02:44:46;;;;;;;127.85;18.67;;;;;;;4.10;100.00;98097.91;5008743;28;20049;-58
2024/02/11 02:47:15;;;;;;;140.90;17.85;;;;;;;4.12;100.00;98103.81;4994566;28;20700;-58
2024/02/11 02:49:46;;;;;;;132.00;16.45;;;;;;;4.16;100.00;98101.91;5008345;28;20054;-58
2024/02/11 02:52:14;;;;;;;101.10;15.77;;;;;;;4.15;100.00;98103.09;4997862;28;20049;-55
2024/02/11 02:54:43;;;;;;;129.95;16.15;;;;;;;4.15;100.00;98100.34;5006638;28;20672;-58
2024/02/11 02:57:13;;;;;;;119.95;15.90;;;;;;;4.17;100.00;98108.97;4997571;28;20057;-57
2024/02/11 02:59:40;;;;;;;130.63;17.60;;;;;;;4.18;100.00;98107.81;5007600;28;20439;-57
2024/02/11 03:02:07;;;;;;;76.88;14.20;;;;;;;4.20;100.00;98107.47;5075429;22;20129;-54
2024/02/11 03:04:37;;;;;;;72.50;13.50;;;;;;;4.16;100.00;98101.91;5008309;28;20182;-58
2024/02/11 03:07:08;;;;;;;80.10;14.13;;;;;;;4.12;100.00;98098.34;5004329;28;20499;-55
2024/02/11 03:09:36;;;;;;;59.83;13.80;;;;;;;4.11;100.00;98106.91;4997991;28;20058;-58
2024/02/11 03:12:03;;;;;;;81.20;14.32;;;;;;;4.10;100.00;98103.38;4988796;28;20046;-58
2024/02/11 03:14:31;;;;;;;78.90;14.40;;;;;;;4.09;100.00;98111.97;4988825;28;20054;-59
2024/02/11 03:16:58;;;;;;;98.18;17.95;;;;;;;4.09;100.00;98095.53;4988383;28;20050;-61
2024/02/11 03:19:26;;;;;;;80.95;15.85;;;;;;;4.10;100.00;98108.84;4988696;28;20108;-57
2024/02/11 03:21:53;;;;;;;92.25;17.58;;;;;;;4.12;100.00;98108.50;4988956;28;20050;-56
2024/02/11 03:24:21;;;;;;;69.25;16.98;;;;;;;4.14;100.00;98108.91;4988693;28;20061;-58
2024/02/11 03:26:49;;;;;;;46.47;15.25;;;;;;;4.13;100.00;98108.13;4988734;28;20050;-57
2024/02/11 03:29:18;;;;;;;49.58;15.68;;;;;;;4.15;100.00;98102.28;4971725;28;20051;-58
2024/02/11 03:31:46;;;;;;;47.95;15.70;;;;;;;4.17;100.00;98116.41;4988561;28;20463;-57
2024/02/11 03:34:14;;;;;;;52.88;15.32;;;;;;;4.18;100.00;98110.53;4987811;28;20062;-58
2024/02/11 03:36:42;;;;;;;64.45;19.45;;;;;;;4.21;100.00;98111.75;4988475;28;20050;-58
2024/02/11 03:39:10;;;;;;;76.90;19.35;;;;;;;4.22;100.00;98114.16;4970975;28;20400;-56
2024/02/11 03:41:38;;;;;;;61.47;19.20;;;;;;;4.24;100.00;98108.28;4986746;28;20050;-58
2024/02/11 03:44:05;;;;;;;85.13;22.83;;;;;;;4.28;100.00;98114.63;4988097;28;20403;-57
2024/02/11 03:46:34;;;;;;;96.60;23.33;;;;;;;4.30;100.00;98118.59;4988233;28;20053;-59
2024/02/11 03:49:02;;;;;;;103.07;24.65;;;;;;;4.32;100.00;98120.94;4988212;28;20404;-58
2024/02/11 03:51:30;;;;;;;96.82;24.55;;;;;;;4.35;100.00;98111.19;4988961;28;20057;-57
2024/02/11 03:54:01;;;;;;;115.50;28.75;;;;;;;4.36;100.00;98116.31;4987719;28;20385;-56
2024/02/11 03:56:29;;;;;;;77.97;24.27;;;;;;;4.38;100.00;98115.94;4987765;28;20419;-58
2024/02/11 03:58:57;;;;;;;85.70;25.88;;;;;;;4.38;100.00;98124.16;5002784;28;20050;-56
2024/02/11 04:01:25;;;;;;;91.28;25.63;;;;;;;4.39;100.00;98123.81;5007378;28;20781;-58
2024/02/11 04:03:52;;;;;;;86.40;27.00;;;;;;;4.40;100.00;98121.84;5007789;28;20054;-61
2024/02/11 04:06:23;;;;;;;87.10;26.52;;;;;;;4.42;100.00;98119.53;4999688;28;20065;-58
2024/02/11 04:08:50;;;;;;;87.68;26.42;;;;;;;4.45;100.00;98121.53;4988210;28;20053;-58
2024/02/11 04:11:19;;;;;;;75.75;24.27;;;;;;;4.45;100.00;98121.53;4987727;28;20076;-57
2024/02/11 04:13:47;;;;;;;75.30;23.70;;;;;;;4.45;100.00;98129.75;4987344;28;20049;-58
2024/02/11 04:16:18;;;;;;;74.75;24.52;;;;;;;4.45;100.00;98136.00;4987707;28;20412;-58
2024/02/11 04:18:45;;;;;;;82.10;25.10;;;;;;;4.48;100.00;98134.47;4987142;28;20648;-59
2024/02/11 04:21:15;;;;;;;75.47;24.98;;;;;;;4.47;100.00;98132.91;4987192;28;20408;-58
2024/02/11 04:23:46;;;;;;;76.25;26.20;;;;;;;4.47;100.00;98132.91;4987559;28;20054;-58
2024/02/11 04:26:17;;;;;;;75.60;25.98;;;;;;;4.47;100.00;98136.47;4987588;28;20053;-59
2024/02/11 04:28:47;;;;;;;91.45;28.90;;;;;;;4.49;100.00;98147.03;4987730;28;20065;-58
2024/02/11 04:31:16;;;;;;;83.47;27.77;;;;;;;4.49;100.00;98152.50;4987374;28;20065;-60
2024/02/11 04:33:46;;;;;;;83.47;27.83;;;;;;;4.49;100.00;98163.47;4987054;28;20699;-59
2024/02/11 04:36:16;;;;;;;97.85;30.10;;;;;;;4.50;100.00;98149.38;4987157;28;20628;-58
2024/02/11 04:38:45;;;;;;;91.05;30.98;;;;;;;4.51;100.00;98152.94;4988561;28;20050;-59
2024/02/11 04:41:13;;;;;;;105.32;32.97;;;;;;;4.51;100.00;98150.97;4997198;28;20077;-58
2024/02/11 04:43:44;;;;;;;101.97;31.52;;;;;;;4.51;100.00;98153.72;5006566;28;20049;-58
2024/02/11 04:46:12;;;;;;;109.60;34.45;;;;;;;4.53;100.00;98156.09;5006361;28;20054;-58
2024/02/11 04:48:39;;;;;;;91.85;31.55;;;;;;;4.54;100.00;98163.94;5006212;28;20828;-59
2024/02/11 04:51:07;;;;;;;100.43;30.30;;;;;;;4.54;100.00;98163.16;5006349;28;20419;-61
2024/02/11 04:53:35;;;;;;;83.82;29.98;;;;;;;4.55;100.00;98170.22;5005858;28;20050;-61
2024/02/11 04:56:03;;;;;;;96.90;31.75;;;;;;;4.56;100.00;98166.31;4996915;28;20062;-61
2024/02/11 04:58:33;;;;;;;98.88;32.33;;;;;;;4.56;100.00;98169.84;5006695;28;20065;-59
2024/02/11 05:01:00;;;;;;;95.18;29.90;;;;;;;4.58;100.00;98177.72;5005562;28;20053;-59
2024/02/11 05:03:28;;;;;;;95.65;32.92;;;;;;;4.59;100.00;98173.78;5002552;28;20565;-58
2024/02/11 05:05:57;;;;;;;101.97;30.60;;;;;;;4.61;100.00;98179.69;4993767;28;20050;-59
2024/02/11 05:08:25;;;;;;;103.75;31.50;;;;;;;4.61;100.00;98187.91;4991258;28;20046;-59
2024/02/11 05:10:53;;;;;;;92.97;31.50;;;;;;;4.61;100.00;98188.72;4997470;28;20050;-60
2024/02/11 05:13:23;;;;;;;91.78;33.05;;;;;;;4.62;100.00;98195.78;5006668;28;20042;-59
2024/02/11 05:15:53;;;;;;;89.15;28.25;;;;;;;4.63;100.00;98202.06;5005555;28;20061;-58
2024/02/11 05:18:20;;;;;;;74.63;28.10;;;;;;;4.62;100.00;98195.78;4993653;28;20054;-58
2024/02/11 05:20:48;;;;;;;78.32;27.83;;;;;;;4.64;100.00;98198.94;4992679;28;20046;-59
2024/02/11 05:23:16;;;;;;;78.03;26.58;;;;;;;4.65;100.00;98200.53;5005326;28;20415;-61
2024/02/11 05:25:44;;;;;;;83.05;29.02;;;;;;;4.65;100.00;98188.78;5006524;28;20586;-59
2024/02/11 05:28:14;;;;;;;72.65;27.35;;;;;;;4.66;100.00;98185.66;5005543;28;20054;-60
2024/02/11 05:30:44;;;;;;;73.18;27.20;;;;;;;4.66;100.00;98193.88;5006137;28;20068;-58
2024/02/11 05:33:18;;;;;;;74.45;25.17;;;;;;;4.67;100.00;98186.44;5009844;28;20046;-58
2024/02/11 05:35:48;;;;;;;60.75;25.13;;;;;;;4.67;100.00;98190.00;5009168;28;20056;-58
2024/02/11 05:38:21;;;;;;;60.65;24.15;;;;;;;4.68;100.00;98193.53;5009734;28;20046;-59
2024/02/11 05:40:50;;;;;;;58.65;24.20;;;;;;;4.68;100.00;98202.53;5009702;28;20046;-61
2024/02/11 05:43:19;;;;;;;59.55;25.17;;;;;;;4.68;100.00;98205.28;5009968;28;20519;-59
2024/02/11 05:45:47;;;;;;;61.25;25.02;;;;;;;4.70;100.00;98204.91;5009479;28;20054;-56
2024/02/11 05:48:14;;;;;;;57.25;25.08;;;;;;;4.69;100.00;98209.59;5008719;28;20046;-59
2024/02/11 05:50:45;;;;;;;59.88;22.52;;;;;;;4.68;100.00;98207.22;5009644;28;20077;-57
2024/02/11 05:53:12;;;;;;;48.45;20.33;;;;;;;4.69;100.00;98211.53;5009044;28;20046;-59
2024/02/11 05:55:40;;;;;;;52.88;22.95;;;;;;;4.69;100.00;98211.53;5006108;28;20057;-58
2024/02/11 05:58:08;;;;;;;50.35;21.15;;;;;;;4.68;100.00;98212.72;5008996;28;20045;-58
2024/02/11 06:00:39;;;;;;;48.17;20.08;;;;;;;4.68;100.00;98215.44;5008374;28;20054;-61
2024/02/11 06:03:09;;;;;;;46.20;23.02;;;;;;;4.68;100.00;98215.44;5008223;28;20054;-59
2024/02/11 06:05:36;;;;;;;46.72;20.48;;;;;;;4.69;100.00;98222.50;5008633;28;20050;-59
2024/02/11 06:08:04;;;;;;;47.00;20.63;;;;;;;4.70;100.00;98218.59;5008813;28;20058;-59
2024/02/11 06:10:36;;;;;;;47.13;20.77;;;;;;;4.69;100.00;98227.97;5005948;28;20049;-59
2024/02/11 06:13:05;;;;;;;43.88;18.75;;;;;;;4.68;100.00;98220.94;5008958;28;20627;-59
2024/02/11 06:15:37;;;;;;;36.80;18.00;;;;;;;4.69;100.00;98226.03;5008612;28;20084;-58
2024/02/11 06:18:06;;;;;;;;;;;;;;;4.67;100.00;98227.56;4999582;28;20061;-61
2024/02/11 06:20:34;;;;;;;39.40;18.33;;;;;;;4.65;100.00;98224.41;5006489;28;19929;-59
2024/02/11 06:23:05;;;;;;;41.00;17.73;;;;;;;4.66;100.00;98239.69;5008948;28;20049;-59
2024/02/11 06:25:33;;;;;;;36.88;16.38;;;;;;;4.65;100.00;98232.63;4995167;28;20042;-58
2024/02/11 06:28:01;;;;;;;32.95;15.93;;;;;;;4.65;100.00;98232.63;5008803;28;20412;-59
2024/02/11 06:30:29;;;;;;;34.97;16.98;;;;;;;4.66;100.00;98231.47;5008254;28;20041;-57
2024/02/11 06:32:56;;;;;;;40.05;17.65;;;;;;;4.67;100.00;98230.28;4996183;28;20064;-59
2024/02/11 06:35:24;;;;;;;35.83;15.73;;;;;;;4.65;100.00;98229.88;4994925;28;20050;-59
2024/02/11 06:37:54;;;;;;;36.63;16.58;;;;;;;4.65;100.00;98236.16;5008635;28;20061;-59
2024/02/11 06:40:27;;;;;;;34.20;15.20;;;;;;;4.65;100.00;98243.59;4982725;28;20046;-61
2024/02/11 06:42:59;;;;;;;34.15;15.52;;;;;;;4.65;100.00;98249.06;5008040;28;20057;-58
2024/02/11 06:45:28;;;;;;;29.73;12.35;;;;;;;4.61;100.00;98243.50;4978701;28;20050;-59
2024/02/11 06:47:56;;;;;;;31.55;14.07;;;;;;;4.61;100.00;98242.72;5003167;28;20054;-56
2024/02/11 06:50:24;;;;;;;20.88;12.15;;;;;;;4.58;100.00;98248.94;5008112;28;20054;-59
2024/02/11 06:52:52;;;;;;;27.23;12.32;;;;;;;4.55;100.00;98250.47;5004464;28;20088;-61
2024/02/11 06:55:20;;;;;;;25.80;11.75;;;;;;;4.55;100.00;98250.47;4988804;28;20058;-59
2024/02/11 06:57:48;;;;;;;29.33;11.40;;;;;;;4.54;100.00;98248.09;5004031;28;20053;-59
2024/02/11 07:00:18;;;;;;;29.25;11.63;;;;;;;4.52;100.00;98256.69;5008160;28;20046;-61
2024/02/11 07:02:47;;;;;;;24.88;11.43;;;;;;;4.50;100.00;98260.94;5007465;28;20080;-59
2024/02/11 07:05:15;;;;;;;22.00;11.45;;;;;;;4.48;100.00;98260.50;5006834;28;20504;-57
2024/02/11 07:07:44;;;;;;;25.65;11.63;;;;;;;4.47;100.00;98269.91;4993529;28;20119;-59
2024/02/11 07:10:13;;;;;;;26.63;11.65;;;;;;;4.45;100.00;98261.25;5005208;28;20073;-59
2024/02/11 07:12:44;;;;;;;21.92;10.18;;;;;;;4.43;100.00;98266.28;4989297;28;20053;-58
2024/02/11 07:15:14;;;;;;;23.55;10.43;;;;;;;4.42;100.00;98278.41;5001043;28;20050;-56
2024/02/11 07:17:43;;;;;;;19.70;9.77;;;;;;;4.39;100.00;98273.66;5006121;28;20038;-61
2024/02/11 07:20:14;;;;;;;18.17;8.50;;;;;;;4.38;100.00;98280.28;4994629;28;20057;-57
2024/02/11 07:22:44;;;;;;;15.13;8.70;;;;;;;4.35;100.00;98290.03;5007655;28;20046;-59
2024/02/11 07:25:16;;;;;;;15.05;7.47;;;;;;;4.32;100.00;98286.06;5006439;28;20057;-59
2024/02/11 07:27:45;;;;;;;15.40;8.07;;;;;;;4.30;100.00;98290.31;5007145;28;20057;-59
2024/02/11 07:30:13;;;;;;;16.63;7.55;;;;;;;4.28;100.00;98293.44;5006752;28;20050;-60
2024/02/11 07:32:42;;;;;;;12.70;7.18;;;;;;;4.27;100.00;98307.47;5007470;28;20062;-57
2024/02/11 07:35:12;;;;;;;17.48;7.65;;;;;;;4.25;100.00;98296.09;5007196;28;20061;-59
2024/02/11 07:37:41;;;;;;;15.52;6.97;;;;;;;4.24;100.00;98310.94;5004595;28;20743;-59
2024/02/11 07:40:11;;;;;;;14.32;5.78;;;;;;;4.21;100.00;98311.66;5005309;28;20056;-59
2024/02/11 07:42:40;;;;;;;13.32;6.00;;;;;;;4.19;100.00;98313.97;5006892;28;20049;-58
2024/02/11 07:45:14;;;;;;;9.27;5.43;;;;;;;4.15;100.00;98316.66;5007003;28;20057;-58
2024/02/11 07:47:47;;;;;;;13.70;5.63;;;;;;;4.13;100.00;98320.91;5007315;28;20499;-59
2024/02/11 07:50:16;;;;;;;14.55;5.05;;;;;;;4.10;100.00;98322.41;5006868;28;20675;-58
2024/02/11 07:52:44;;;;;;;11.10;4.95;;;;;;;4.08;100.00;98324.72;5006607;28;20049;-59
2024/02/11 07:55:12;;;;;;;12.88;4.90;;;;;;;4.08;100.00;98343.88;5006558;28;20583;-56
2024/02/11 07:57:39;;;;;;;11.65;4.70;;;;;;;4.08;100.00;98345.81;5007256;28;20058;-58
2024/02/11 08:00:07;;;;;;;9.10;4.30;;;;;;;4.04;100.00;98356.72;5006897;28;20061;-58
2024/02/11 08:02:34;;;;;;;10.63;4.60;;;;;;;4.04;100.00;98353.97;5006810;28;20058;-61
2024/02/11 08:05:02;;;;;;;11.38;4.55;;;;;;;4.01;100.00;98357.44;5006296;28;20459;-58
2024/02/11 08:07:30;;;;;;;15.60;4.93;;;;;;;3.99;100.00;98357.00;4993264;28;20539;-57
2024/02/11 08:09:57;;;;;;;9.23;4.63;;;;;;;3.99;100.00;98361.69;5004256;28;20442;-60
2024/02/11 08:12:24;;;;;;;11.52;3.55;;;;;;;3.98;100.00;98358.16;5006923;28;20065;-58
2024/02/11 08:14:52;;;;;;;8.25;3.45;;;;;;;3.97;100.00;98356.56;5006887;28;20046;-59
2024/02/11 08:17:20;;;;;;;8.57;3.38;;;;;;;3.98;100.00;98368.31;5006067;28;20046;-56
2024/02/11 08:19:47;;;;;;;13.15;3.42;;;;;;;3.98;100.00;98379.25;5006339;28;20050;-59
2024/02/11 08:22:15;;;;;;;12.45;3.75;;;;;;;3.97;100.00;98372.97;5006129;28;20708;-59
2024/02/11 08:24:42;;;;;;;8.95;3.30;;;;;;;3.99;100.00;98365.22;5006559;28;20471;-57
2024/02/11 08:27:10;;;;;;;7.38;2.85;;;;;;;4.00;100.00;98377.75;5001356;28;20113;-58
2024/02/11 08:29:37;;;;;;;7.30;2.60;;;;;;;4.03;100.00;98385.25;4998916;28;20057;-58
2024/02/11 08:32:05;;;;;;;6.07;3.28;;;;;;;4.04;100.00;98384.09;5002721;28;20054;-56
2024/02/11 08:34:32;;;;;;;7.50;2.38;;;;;;;4.05;100.00;98385.66;5000542;28;20049;-59
2024/02/11 08:37:00;;;;;;;8.60;3.42;;;;;;;4.05;100.00;98380.19;4990372;28;20111;-58
2024/02/11 08:39:27;;;;;;;11.23;2.78;;;;;;;4.07;100.00;98394.34;5001672;28;20046;-53
2024/02/11 08:41:55;;;;;;;7.68;2.83;;;;;;;4.09;100.00;98391.22;4996710;28;20422;-58
2024/02/11 08:44:24;;;;;;;6.78;2.20;;;;;;;4.10;100.00;98392.81;5009249;28;20431;-58
2024/02/11 08:46:52;;;;;;;7.93;2.30;;;;;;;4.09;100.00;98392.03;5008730;28;20052;-59
2024/02/11 08:49:20;;;;;;;9.80;2.10;;;;;;;4.08;100.00;98389.63;5009402;28;20046;-61
2024/02/11 08:51:47;;;;;;;8.48;2.55;;;;;;;4.06;100.00;98392.75;5008856;28;20054;-59
2024/02/11 08:54:14;;;;;;;5.78;2.20;;;;;;;4.04;100.00;98391.50;4982872;28;20154;-58
2024/02/11 08:56:42;;;;;;;9.85;1.73;;;;;;;4.03;100.00;98392.66;4996224;28;20397;-58
2024/02/11 08:59:13;;;;;;;4.22;1.65;;;;;;;4.00;100.00;98391.44;4993175;28;20419;-57
2024/02/11 09:01:50;;;;;;;6.75;2.22;;;;;;;3.98;100.00;98392.94;4986700;28;20061;-58
2024/02/11 09:04:19;;;;;;;10.02;2.83;;;;;;;3.97;100.00;98394.13;5005277;28;20705;-59
2024/02/11 09:06:49;;;;;;;4.43;2.05;;;;;;;3.96;100.00;98387.03;4987609;28;20076;-59
2024/02/11 09:09:25;;;;;;;5.90;2.28;;;;;;;3.93;100.00;98394.03;4993903;28;20042;-59
2024/02/11 09:11:55;;;;;;;5.47;1.85;;;;;;;3.94;100.00;98403.84;4988086;28;20061;-59
2024/02/11 09:14:31;;;;;;;9.48;2.15;;;;;;;3.96;100.00;98409.75;4994982;28;20074;-58
2024/02/11 09:16:59;;;;;;;4.97;1.73;;;;;;;3.99;100.00;98409.03;4993243;28;20038;-60
2024/02/11 09:19:27;;;;;;;7.50;2.75;;;;;;;4.03;100.00;98412.63;4981424;28;20049;-58
2024/02/11 09:21:57;;;;;;;5.18;1.98;;;;;;;4.05;100.00;98418.53;4991329;28;20042;-59
2024/02/11 09:24:25;;;;;;;10.10;3.55;;;;;;;4.08;100.00;98422.50;5003395;28;20057;-59
2024/02/11 09:26:52;;;;;;;6.03;1.77;;;;;;;4.11;100.00;98417.09;5004552;28;20507;-58
2024/02/11 09:29:22;;;;;;;10.25;1.80;;;;;;;4.12;100.00;98421.44;4989446;28;20053;-59
2024/02/11 09:31:50;;;;;;;8.48;2.15;;;;;;;4.16;100.00;98430.50;4984111;28;20042;-57
2024/02/11 09:34:21;;;;;;;5.47;1.63;;;;;;;4.20;100.00;98420.44;5001805;28;20054;-58
2024/02/11 09:36:49;;;;;;;5.68;2.20;;;;;;;4.24;100.00;98431.44;5003760;28;20045;-58
2024/02/11 09:39:16;;;;;;;10.88;2.20;;;;;;;4.29;100.00;98429.22;5006160;28;20633;-59
2024/02/11 09:41:45;;;;;;;8.77;1.92;;;;;;;4.34;100.00;98427.34;4989053;28;20057;-59
2024/02/11 09:44:17;;;;;;;8.20;1.33;;;;;;;4.40;100.00;98428.63;4994376;28;20534;-55
2024/02/11 09:46:50;;;;;;;5.72;1.92;;;;;;;4.46;100.00;98424.44;5005750;28;20057;-57
2024/02/11 09:49:19;;;;;;;7.22;1.60;;;;;;;4.52;100.00;98431.25;5006690;28;20496;-57
2024/02/11 09:51:50;;;;;;;8.27;1.25;;;;;;;4.60;100.00;98438.44;4993867;28;20053;-60
2024/02/11 09:54:20;;;;;;;8.65;1.85;;;;;;;4.66;100.00;98434.28;4998075;28;20046;-56
2024/02/11 09:56:48;;;;;;;7.32;1.85;;;;;;;4.74;100.00;98441.44;5005604;28;20066;-58
2024/02/11 09:59:15;;;;;;;6.82;1.23;;;;;;;4.81;100.00;98447.06;4993459;28;20054;-57
2024/02/11 10:01:42;;;;;;;6.97;1.27;;;;;;;4.87;100.00;98443.66;4995025;28;20062;-58
2024/02/11 10:04:13;;;;;;;11.43;1.80;;;;;;;4.95;100.00;98449.28;5004164;28;20053;-53
2024/02/11 10:06:43;;;;;;;10.98;3.05;;;;;;;5.01;100.00;98456.84;4986547;28;20046;-58
2024/02/11 10:09:12;;;;;;;5.18;1.00;;;;;;;5.06;100.00;98447.53;4969919;28;20114;-58
2024/02/11 10:11:39;;;;;;;5.15;1.33;;;;;;;5.13;100.00;98464.91;4986653;28;20046;-57
2024/02/11 10:14:13;;;;;;;5.38;1.20;;;;;;;5.20;100.00;98459.56;5002169;28;20046;-57
2024/02/11 10:16:41;;;;;;;6.95;1.92;;;;;;;5.27;100.00;98461.63;5006204;28;20507;-52
2024/02/11 10:19:09;;;;;;;5.35;0.93;;;;;;;5.29;100.00;98460.13;5003965;28;20053;-56
2024/02/11 10:21:37;;;;;;;9.60;1.33;;;;;;;5.33;100.00;98466.44;4987662;28;20054;-58
2024/02/11 10:24:05;;;;;;;7.18;1.40;;;;;;;5.34;100.00;98468.03;4995348;28;20053;-56
2024/02/11 10:26:33;;;;;;;2.10;1.00;;;;;;;5.35;100.00;98471.53;5009721;28;20042;-55
2024/02/11 10:29:04;;;;;;;8.50;1.42;;;;;;;5.35;100.00;98469.59;4997955;28;20054;-57
2024/02/11 10:31:35;;;;;;;6.45;1.52;;;;;;;5.37;100.00;98472.78;5008931;28;20120;-60
2024/02/11 10:34:03;;;;;;;6.40;1.77;;;;;;;5.39;100.00;98475.97;5009332;28;20076;-61
2024/02/11 10:36:34;;;;;;;8.70;1.65;;;;;;;5.38;100.00;98482.59;5009039;28;20053;-59
2024/02/11 10:39:02;;;;;;;6.68;0.98;;;;;;;5.40;100.00;98482.25;5010389;28;20050;-61
2024/02/11 10:41:29;;;;;;;2.08;1.02;;;;;;;5.40;100.00;98483.00;5010136;28;20057;-59
2024/02/11 10:43:57;;;;;;;6.22;1.23;;;;;;;5.42;100.00;98477.97;5008589;28;20418;-59
2024/02/11 10:46:26;;;;;;;6.45;1.60;;;;;;;5.44;100.00;98483.09;5001022;28;20057;-59
2024/02/11 10:48:54;;;;;;;4.05;0.93;;;;;;;5.45;100.00;98490.16;5009278;28;20057;-59
2024/02/11 10:51:32;;;;;;;4.07;1.00;;;;;;;5.48;100.00;98489.44;5009165;28;20046;-59
2024/02/11 10:54:03;;;;;;;8.52;1.42;;;;;;;5.50;100.00;98490.66;5009666;28;20050;-59
2024/02/11 10:56:33;;;;;;;7.10;1.02;;;;;;;5.54;100.00;98499.72;4990751;28;20058;-58
2024/02/11 10:59:05;;;;;;;12.85;2.50;;;;;;;5.57;100.00;98494.66;5003946;28;20054;-61
2024/02/11 11:01:38;;;;;;;8.75;1.35;;;;;;;5.62;100.00;98499.84;4984663;28;20057;-60
2024/02/11 11:04:10;;;;;;;8.85;1.50;;;;;;;5.66;100.00;98506.19;5009046;28;20069;-59
2024/02/11 11:06:38;;;;;;;4.47;1.50;;;;;;;5.66;100.00;98497.97;5000989;28;20046;-59
2024/02/11 11:09:06;;;;;;;8.13;1.42;;;;;;;5.69;100.00;98505.47;4990964;28;20061;-61
2024/02/11 11:11:33;;;;;;;5.78;1.25;;;;;;;5.72;100.00;98507.47;5008581;28;20056;-58
2024/02/11 11:14:10;;;;;;;4.97;1.25;;;;;;;5.76;100.00;98500.09;5005892;28;20054;-58
2024/02/11 11:16:38;;;;;;;12.10;1.25;;;;;;;5.79;100.00;98516.63;4987339;28;20512;-59
2024/02/11 11:19:13;;;;;;;7.18;1.33;;;;;;;5.81;100.00;98513.50;4987017;28;20053;-58
2024/02/11 11:21:55;;;;;;;4.57;1.27;;;;;;;5.85;100.00;98517.91;5008772;28;20411;-62
2024/02/11 11:24:24;;;;;;;9.45;1.60;;;;;;;5.89;100.00;98517.97;4978643;28;20116;-61
2024/02/11 11:26:53;;;;;;;7.45;1.30;;;;;;;5.91;100.00;98519.19;5004849;28;20503;-59
2024/02/11 11:29:32;;;;;;;5.05;1.10;;;;;;;5.96;100.00;98524.38;4989200;28;20504;-61